Jepson Prairie Reserve, California Weather observations

Data are for 10 minute period ending at time listed.
 Day   Time   Solar   Ave.   Ave.  Ave.  Vector  Max.   Baro.   Total    
  of    of     Rad.   Air    Rel.  Wind   Wind   Wind  Press.  Precip.   
Year   Day            Temp.  Hum.  Speed  Dir.   Gust                    
2014   (PST)  Kw/m2    F      %     mph   deg.    mph    mb.     in.     
-------------------------------------------------------------------------
 324   17:10   0.00   54.5    95    2.2   332     6.2   1014.6    0.00 
 324   17:20   0.00   54.5    95    5.8   286     6.7   1014.6    0.02 
 324   17:30   0.00   54.4    95    2.3   254     5.7   1014.6    0.15 
 324   17:40   0.00   54.0    94   10.2    84    15.5   1013.9    0.11 
 324   17:50   0.00   54.0    95   10.8    85    13.2   1013.9    0.01 
 324   18:00   0.00   53.9    96   11.5   100    14.4   1013.9    0.01 
 324   18:10   0.00   53.8    96    8.6    96    11.8   1013.9    0.00 
 324   18:20   0.00   53.6    96    7.8    95    10.0   1013.9    0.00 
 324   18:30   0.00   53.5    96    7.4    99     9.9   1013.9    0.00 
 324   18:40   0.00   53.3    97    5.1   104     7.2   1014.2    0.00 
 324   18:50   0.00   53.2    97    5.1   106     6.5   1013.9    0.00 
 324   19:00   0.00   53.4    97    5.8   102     7.6   1013.9    0.00 
 324   19:10   0.00   53.4    97    6.0    95     7.0   1013.9    0.00 
 324   19:20   0.00   53.4    97    5.2    92     6.9   1013.9    0.00 
 324   19:30   0.00   53.3    97    4.4   100     5.3   1013.9    0.00 
 324   19:40   0.00   53.2    97    2.1    88     3.9   1013.9    0.00 
 324   19:50   0.00   53.1    97    0.9    46     1.6   1013.9    0.00 
 324   20:00   0.00   53.0    97    3.0   330     4.7   1014.2    0.00 
 324   20:10   0.00   53.3    97    2.8    18     3.7   1014.2    0.00 
 324   20:20   0.00   53.2    97    3.0    11     4.2   1014.6    0.00 
 324   20:30   0.00   52.8    97    5.0   355     5.9   1014.6    0.00 
 324   20:40   0.00   52.5    97    5.0   355     6.0   1014.6    0.00 
 324   20:50   0.00   52.0    97    5.1   349     5.8   1014.9    0.00 
 324   21:00   0.00   52.2    98    5.8   360     6.7   1014.9    0.00 
 324   21:10   0.00   52.3    98    4.8   355     5.9   1014.9    0.00 
 324   21:20   0.00   52.5    98    4.9     3     5.9   1015.2    0.00 
 324   21:30   0.00   52.5    98    4.7   359     5.7   1015.2    0.00 
 324   21:40   0.00   52.5    98    4.4   358     5.6   1015.2    0.00 
 324   21:50   0.00   52.7    98    4.8   359     6.1   1015.2    0.00 
 324   22:00   0.00   52.8    98    4.1     3     5.0   1015.2    0.00 
 324   22:10   0.00   52.9    98    3.7    15     4.7   1015.2    0.00 
 324   22:20   0.00   53.0    98    3.9    12     5.3   1015.2    0.00 
 324   22:30   0.00   53.1    98    3.7    13     4.5   1015.2    0.00 
 324   22:40   0.00   53.1    98    4.6    12     6.1   1015.2    0.00 
 324   22:50   0.00   53.0    98    5.7     2     6.4   1015.2    0.00 
 324   23:00   0.00   52.9    98    5.4    10     6.4   1015.2    0.00 
 324   23:10   0.00   52.7    98    4.8   355     6.1   1015.2    0.00 
 324   23:20   0.00   52.0    98    3.9   334     4.7   1015.2    0.00 
 324   23:30   0.00   51.7    98    3.4   320     4.3   1015.2    0.00 
 324   23:40   0.00   51.9    98    4.0   322     5.0   1015.2    0.00 
 324   23:50   0.00   51.6    98    5.2   323     6.2   1015.2    0.00 
 325    0:00   0.00   51.2    98    5.7   300     6.6   1015.2    0.00 
 325    0:10   0.00   51.5    98    5.4   300     6.6   1015.2    0.00 
 325    0:20   0.00   51.5    98    5.1   297     6.4   1015.2    0.00 
 325    0:30   0.00   51.5    98    3.5   310     5.4   1014.9    0.00 
 325    0:40   0.00   50.4    98    2.1   277     3.1   1014.9    0.00 
 325    0:50   0.00   48.6    98    3.7   274     5.0   1014.9    0.00 
 325    1:00   0.00   48.7    99    3.4   286     4.4   1014.9    0.00 
 325    1:10   0.00   48.1    98    3.8   251     5.2   1015.2    0.00 
 325    1:20   0.00   48.3    99    3.9   265     4.9   1015.2    0.00 
 325    1:30   0.00   48.0    99    2.9   270     3.7   1015.2    0.00 
 325    1:40   0.00   47.7    99    0.6   276     2.2   1014.9    0.00 
 325    1:50   0.00   48.1    99    0.0     0     0.0   1014.9    0.00 
 325    2:00   0.00   47.7    99    0.0   277     0.4   1014.9    0.00 
 325    2:10   0.00   47.8    99    0.3   277     1.3   1014.9    0.00 
 325    2:20   0.00   47.8    99    1.7    68     2.3   1014.9    0.00 
 325    2:30   0.00   48.1   100    1.1    23     2.0   1014.9    0.00 
 325    2:40   0.00   47.0    99    1.4    59     2.9   1014.9    0.00 
 325    2:50   0.00   47.7   100    1.7   347     5.5   1015.2    0.00 
 325    3:00   0.00   50.3   100    4.4   330     6.0   1015.2    0.00 
 325    3:10   0.00   51.2   100    5.9   352     8.4   1015.2    0.00 
 325    3:20   0.00   51.2    99    4.4   359     5.7   1015.2    0.00 
 325    3:30   0.00   50.5    99    3.3   345     4.3   1015.2    0.00 
 325    3:40   0.00   49.8    99    2.7   303     3.8   1015.2    0.00 
 325    3:50   0.00   50.5   100    3.8   328     5.7   1015.2    0.00 
 325    4:00   0.00   50.6    99    5.6   330     7.7   1015.6    0.00 
 325    4:10   0.00   50.1    99    6.6   335     8.4   1015.2    0.00 
 325    4:20   0.00   49.7    99    6.1   328     7.1   1015.2    0.00 
 325    4:30   0.00   49.3    99    5.9   327     6.9   1015.2    0.00 
 325    4:40   0.00   49.2    99    5.1   343     6.8   1015.2    0.00 
 325    4:50   0.00   49.2    99    5.3   348     6.6   1015.2    0.00 
 325    5:00   0.00   49.0    99    5.4   348     6.8   1015.2    0.00 
 325    5:10   0.00   48.9    99    4.5   350     5.9   1015.6    0.00 
 325    5:20   0.00   48.9    99    4.9   359     6.2   1015.6    0.00 
 325    5:30   0.00   49.1    99    2.8   326     4.5   1015.6    0.00 
 325    5:40   0.00   49.1    99    4.0   308     5.7   1015.9    0.00 
 325    5:50   0.00   49.1    99    4.3   333     5.5   1015.9    0.00 
 325    6:00   0.00   49.1    99    3.9   337     5.3   1015.9    0.00 
 325    6:10   0.00   49.0    99    3.4   353     4.2   1015.9    0.00 
 325    6:20   0.00   48.8    99    5.1   352     7.0   1015.9    0.00 
 325    6:30   0.00   48.3    99    6.7     8     9.6   1015.9    0.00 
 325    6:40   0.00   47.6    99    7.7   356     9.5   1015.9    0.00 
 325    6:50   0.01   47.4    99    7.1   349     9.5   1015.9    0.00 
 325    7:00   0.01   47.5   100    6.5   348     8.6   1016.3    0.00 
 325    7:10   0.01   47.9   100    6.6   352     9.4   1016.3    0.00 
 325    7:20   0.02   48.3   100    6.4   355     8.9   1016.3    0.00 
 325    7:30   0.03   48.6   100    6.8   352     8.9   1016.6    0.00 
 325    7:40   0.03   48.7   100    6.0   355     8.3   1016.6    0.00 
 325    7:50   0.06   48.8   100    4.5   357     6.8   1016.6    0.00 
 325    8:00   0.08   49.1   100    3.1   345     4.7   1016.9    0.00 
 325    8:10   0.09   49.2    99    4.3   336     6.8   1016.9    0.00 
 325    8:20   0.07   49.1    99    5.0   326     6.5   1017.3    0.00 
 325    8:30   0.07   49.0    99    4.7   343     6.1   1017.3    0.00 
 325    8:40   0.07   49.0    99    4.5   326     5.9   1017.6    0.00 
 325    8:50   0.09   49.0    99    6.2   336     7.9   1017.6    0.00 
 325    9:00   0.12   49.1    99    5.0   328     7.3   1018.0    0.00 
 325    9:10   0.13   49.5    99    4.0   318     5.6   1018.0    0.00 
 325    9:20   0.11   49.5    99    3.1   336     5.0   1018.0    0.00 
 325    9:30   0.13   49.6    99    3.0   323     4.5   1018.0    0.00 
 325    9:40   0.13   49.9    99    3.4   320     5.0   1018.0    0.00 
 325    9:50   0.15   49.9    99    4.2   326     6.3   1018.0    0.00 
 325   10:00   0.17   50.2    99    3.3   332     6.5   1018.0    0.00 
 325   10:10   0.18   50.5    98    3.7   341     5.6   1018.0    0.00 
 325   10:20   0.18   50.8    98    2.3   344     4.2   1018.0    0.00 
 325   10:30   0.22   51.2    98    2.6    30     5.0   1018.0    0.00 
 325   10:40   0.29   51.7    97    3.9    19     6.7   1018.0    0.00 
 325   10:50   0.63   52.9    94    5.0    43     7.3   1018.0    0.00 
 325   11:00   0.50   53.5    87    4.4    37     7.3   1018.0    0.00 
 325   11:10   0.24   53.6    85    3.0    42     5.6   1018.0    0.00 
 325   11:20   0.31   53.9    84    2.5    41     4.8   1018.0    0.00 
 325   11:30   0.32   54.4    82    2.2    52     4.2   1018.0    0.00 
 325   11:40   0.41   55.1    80    1.7    64     5.2   1018.0    0.00 
 325   11:50   0.60   56.2    78    1.7   291     3.6   1017.6    0.00 
 325   12:00   0.36   57.5    76    1.4   221     4.3   1017.6    0.00 
 325   12:10   0.37   56.4    77    2.3   356     4.2   1017.6    0.00 
 325   12:20   0.36   56.8    76    1.4     3     3.7   1017.6    0.00 
 325   12:30   0.15   56.2    78    3.1   140     6.6   1017.6    0.00 
 325   12:40   0.17   55.9    79    3.7    93     6.3   1017.6    0.00 
 325   12:50   0.18   56.0    80    3.9    98     6.4   1017.6    0.00 
 325   13:00   0.20   55.9    80    4.0    75     5.6   1017.3    0.00 
 325   13:10   0.22   56.3    80    4.2    48     6.0   1016.9    0.00 
 325   13:20   0.22   57.0    78    4.8    82     8.4   1016.9    0.00 
 325   13:30   0.20   56.8    79    6.0    67     9.2   1016.9    0.00 
 325   13:40   0.23   56.9    79    7.7    69    10.2   1016.9    0.00 
 325   13:50   0.19   56.9    79    6.7    78     9.5   1016.9    0.00 
 325   14:00   0.18   56.8    79    6.4    76     9.3   1016.9    0.00 
 325   14:10   0.21   56.7    79    7.4    84    11.8   1016.6    0.00 
 325   14:20   0.18   57.0    78    6.3   104    10.2   1016.6    0.00 
 325   14:30   0.12   57.0    78    5.9   117    10.7   1016.9    0.00 
 325   14:40   0.07   56.7    79    4.6   127     6.9   1016.9    0.00 
 325   14:50   0.07   56.6    80    3.6   131     5.9   1017.3    0.00 
 325   15:00   0.11   56.8    79    3.8   133     6.1   1017.3    0.00 
 325   15:10   0.10   57.1    79    4.7   118     6.4   1017.3    0.00 
 325   15:20   0.08   57.0    79    4.5    98     6.0   1017.3    0.00 
 325   15:30   0.07   57.0    79    5.0    94     6.9   1017.3    0.00 
 325   15:40   0.07   56.8    80    5.6    98     6.8   1017.3    0.00 
 325   15:50   0.06   56.8    80    5.6   106     7.1   1017.3    0.00 
 325   16:00   0.04   56.6    82    5.4   104     6.9   1017.3    0.00 
 325   16:10   0.03   56.2    83    6.3    92     8.0   1017.3    0.00 
 325   16:20   0.02   55.8    84    6.0    88     6.9   1017.3    0.00 
 325   16:30   0.01   55.5    85    6.5   102     8.6   1017.3    0.00 
 325   16:40   0.01   55.3    85    4.3   108     6.0   1017.6    0.00 
 325   16:50   0.00   55.2    86    4.7   101     6.3   1017.6    0.00 
 325   17:00   0.00   55.0    86    4.1   104     6.1   1017.3    0.00 

Return to Jepson Prairie Reserve graphs page.


Western Regional Climate Center,wrcc@dri.edu